sensor_id;sensor_type;location;lat;lon;timestamp;P1;durP1;ratioP1;P2;durP2;ratioP2
43150;SDS011;28755;51.478;5.702;2023-04-25T00:01:47;18.45;;;4.53;;
43150;SDS011;28755;51.478;5.702;2023-04-25T00:04:12;17.67;;;4.78;;
43150;SDS011;28755;51.478;5.702;2023-04-25T00:06:38;17.17;;;4.55;;
43150;SDS011;28755;51.478;5.702;2023-04-25T00:09:04;16.73;;;4.72;;
43150;SDS011;28755;51.478;5.702;2023-04-25T00:11:32;13.82;;;4.40;;
43150;SDS011;28755;51.478;5.702;2023-04-25T00:13:58;16.25;;;4.15;;
43150;SDS011;28755;51.478;5.702;2023-04-25T00:16:26;20.00;;;4.15;;
43150;SDS011;28755;51.478;5.702;2023-04-25T00:18:53;15.38;;;4.53;;
43150;SDS011;28755;51.478;5.702;2023-04-25T00:21:19;15.68;;;4.28;;
43150;SDS011;28755;51.478;5.702;2023-04-25T00:23:45;15.88;;;4.35;;
43150;SDS011;28755;51.478;5.702;2023-04-25T00:26:11;19.25;;;4.55;;
43150;SDS011;28755;51.478;5.702;2023-04-25T00:28:37;22.15;;;5.07;;
43150;SDS011;28755;51.478;5.702;2023-04-25T00:31:03;13.00;;;3.95;;
43150;SDS011;28755;51.478;5.702;2023-04-25T00:33:29;18.02;;;4.15;;
43150;SDS011;28755;51.478;5.702;2023-04-25T00:35:55;21.90;;;4.25;;
43150;SDS011;28755;51.478;5.702;2023-04-25T00:38:21;18.63;;;4.03;;
43150;SDS011;28755;51.478;5.702;2023-04-25T00:40:46;14.27;;;4.03;;
43150;SDS011;28755;51.478;5.702;2023-04-25T00:43:12;12.65;;;4.03;;
43150;SDS011;28755;51.478;5.702;2023-04-25T00:45:38;19.08;;;4.22;;
43150;SDS011;28755;51.478;5.702;2023-04-25T00:48:04;12.95;;;4.40;;
43150;SDS011;28755;51.478;5.702;2023-04-25T00:50:32;14.52;;;4.00;;
43150;SDS011;28755;51.478;5.702;2023-04-25T00:52:58;14.57;;;3.95;;
43150;SDS011;28755;51.478;5.702;2023-04-25T00:55:25;20.55;;;4.63;;
43150;SDS011;28755;51.478;5.702;2023-04-25T00:57:51;23.02;;;4.60;;
43150;SDS011;28755;51.478;5.702;2023-04-25T01:00:16;16.13;;;5.03;;
43150;SDS011;28755;51.478;5.702;2023-04-25T01:02:43;16.77;;;4.22;;
43150;SDS011;28755;51.478;5.702;2023-04-25T01:05:09;13.80;;;4.20;;
43150;SDS011;28755;51.478;5.702;2023-04-25T01:07:35;15.85;;;4.78;;
43150;SDS011;28755;51.478;5.702;2023-04-25T01:10:01;20.88;;;4.38;;
43150;SDS011;28755;51.478;5.702;2023-04-25T01:12:27;16.23;;;4.05;;
43150;SDS011;28755;51.478;5.702;2023-04-25T01:14:52;17.02;;;4.72;;
43150;SDS011;28755;51.478;5.702;2023-04-25T01:17:19;18.60;;;5.03;;
43150;SDS011;28755;51.478;5.702;2023-04-25T01:19:44;16.05;;;4.22;;
43150;SDS011;28755;51.478;5.702;2023-04-25T01:22:12;25.27;;;5.35;;
43150;SDS011;28755;51.478;5.702;2023-04-25T01:24:39;23.67;;;4.43;;
43150;SDS011;28755;51.478;5.702;2023-04-25T01:27:04;22.80;;;4.70;;
43150;SDS011;28755;51.478;5.702;2023-04-25T01:29:31;16.15;;;4.93;;
43150;SDS011;28755;51.478;5.702;2023-04-25T01:31:57;20.67;;;4.70;;
43150;SDS011;28755;51.478;5.702;2023-04-25T01:34:24;16.85;;;4.75;;
43150;SDS011;28755;51.478;5.702;2023-04-25T01:36:50;17.88;;;4.80;;
43150;SDS011;28755;51.478;5.702;2023-04-25T01:39:16;18.77;;;5.15;;
43150;SDS011;28755;51.478;5.702;2023-04-25T01:41:42;14.52;;;4.53;;
43150;SDS011;28755;51.478;5.702;2023-04-25T01:44:08;19.48;;;5.68;;
43150;SDS011;28755;51.478;5.702;2023-04-25T01:46:34;20.60;;;4.85;;
43150;SDS011;28755;51.478;5.702;2023-04-25T01:49:00;17.77;;;5.53;;
43150;SDS011;28755;51.478;5.702;2023-04-25T01:51:26;16.27;;;5.53;;
43150;SDS011;28755;51.478;5.702;2023-04-25T01:53:51;24.30;;;6.28;;
43150;SDS011;28755;51.478;5.702;2023-04-25T01:56:17;17.05;;;5.80;;
43150;SDS011;28755;51.478;5.702;2023-04-25T01:58:43;25.08;;;6.00;;
43150;SDS011;28755;51.478;5.702;2023-04-25T02:01:10;19.00;;;6.45;;
43150;SDS011;28755;51.478;5.702;2023-04-25T02:03:36;30.08;;;7.55;;
43150;SDS011;28755;51.478;5.702;2023-04-25T02:06:01;20.13;;;6.75;;
43150;SDS011;28755;51.478;5.702;2023-04-25T02:08:27;20.40;;;6.40;;
43150;SDS011;28755;51.478;5.702;2023-04-25T02:10:53;18.52;;;5.90;;
43150;SDS011;28755;51.478;5.702;2023-04-25T02:13:18;29.38;;;6.10;;
43150;SDS011;28755;51.478;5.702;2023-04-25T02:15:44;22.63;;;6.53;;
43150;SDS011;28755;51.478;5.702;2023-04-25T02:18:09;21.13;;;5.85;;
43150;SDS011;28755;51.478;5.702;2023-04-25T02:20:36;21.08;;;5.95;;
43150;SDS011;28755;51.478;5.702;2023-04-25T02:23:02;24.00;;;6.82;;
43150;SDS011;28755;51.478;5.702;2023-04-25T02:25:28;20.42;;;6.03;;
43150;SDS011;28755;51.478;5.702;2023-04-25T02:27:54;23.10;;;5.70;;
43150;SDS011;28755;51.478;5.702;2023-04-25T02:30:19;15.77;;;5.53;;
43150;SDS011;28755;51.478;5.702;2023-04-25T02:32:45;21.63;;;5.55;;
43150;SDS011;28755;51.478;5.702;2023-04-25T02:35:11;17.38;;;5.60;;
43150;SDS011;28755;51.478;5.702;2023-04-25T02:37:37;20.15;;;5.43;;
43150;SDS011;28755;51.478;5.702;2023-04-25T02:40:04;19.27;;;5.45;;
43150;SDS011;28755;51.478;5.702;2023-04-25T02:42:30;24.33;;;5.63;;
43150;SDS011;28755;51.478;5.702;2023-04-25T02:44:56;27.70;;;6.97;;
43150;SDS011;28755;51.478;5.702;2023-04-25T02:47:21;21.58;;;5.90;;
43150;SDS011;28755;51.478;5.702;2023-04-25T02:49:47;22.05;;;5.65;;
43150;SDS011;28755;51.478;5.702;2023-04-25T02:52:13;23.85;;;6.07;;
43150;SDS011;28755;51.478;5.702;2023-04-25T02:54:39;18.88;;;5.55;;
43150;SDS011;28755;51.478;5.702;2023-04-25T02:57:05;19.60;;;5.55;;
43150;SDS011;28755;51.478;5.702;2023-04-25T02:59:31;18.42;;;6.10;;
43150;SDS011;28755;51.478;5.702;2023-04-25T03:01:57;26.10;;;5.80;;
43150;SDS011;28755;51.478;5.702;2023-04-25T03:04:23;20.83;;;6.22;;
43150;SDS011;28755;51.478;5.702;2023-04-25T03:06:49;21.08;;;6.13;;
43150;SDS011;28755;51.478;5.702;2023-04-25T03:09:15;19.48;;;5.30;;
43150;SDS011;28755;51.478;5.702;2023-04-25T03:11:40;21.10;;;6.00;;
43150;SDS011;28755;51.478;5.702;2023-04-25T03:14:06;23.58;;;6.30;;
43150;SDS011;28755;51.478;5.702;2023-04-25T03:16:32;25.15;;;5.95;;
43150;SDS011;28755;51.478;5.702;2023-04-25T03:18:57;22.10;;;5.93;;
43150;SDS011;28755;51.478;5.702;2023-04-25T03:21:23;17.65;;;5.40;;
43150;SDS011;28755;51.478;5.702;2023-04-25T03:23:48;19.50;;;5.57;;
43150;SDS011;28755;51.478;5.702;2023-04-25T03:26:14;14.65;;;5.13;;
43150;SDS011;28755;51.478;5.702;2023-04-25T03:28:40;25.65;;;6.57;;
43150;SDS011;28755;51.478;5.702;2023-04-25T03:31:06;21.48;;;5.88;;
43150;SDS011;28755;51.478;5.702;2023-04-25T03:33:31;18.83;;;5.30;;
43150;SDS011;28755;51.478;5.702;2023-04-25T03:35:57;25.00;;;6.13;;
43150;SDS011;28755;51.478;5.702;2023-04-25T03:38:22;26.45;;;5.55;;
43150;SDS011;28755;51.478;5.702;2023-04-25T03:40:48;22.52;;;6.40;;
43150;SDS011;28755;51.478;5.702;2023-04-25T03:43:15;18.25;;;5.93;;
43150;SDS011;28755;51.478;5.702;2023-04-25T03:45:41;18.65;;;6.03;;
43150;SDS011;28755;51.478;5.702;2023-04-25T03:48:06;21.98;;;5.68;;
43150;SDS011;28755;51.478;5.702;2023-04-25T03:50:32;27.40;;;7.20;;
43150;SDS011;28755;51.478;5.702;2023-04-25T03:52:58;21.60;;;5.80;;
43150;SDS011;28755;51.478;5.702;2023-04-25T03:55:23;20.45;;;6.35;;
43150;SDS011;28755;51.478;5.702;2023-04-25T03:57:49;19.63;;;6.15;;
43150;SDS011;28755;51.478;5.702;2023-04-25T04:00:14;23.45;;;5.38;;
43150;SDS011;28755;51.478;5.702;2023-04-25T04:02:40;22.13;;;6.10;;
43150;SDS011;28755;51.478;5.702;2023-04-25T04:05:06;25.08;;;6.20;;
43150;SDS011;28755;51.478;5.702;2023-04-25T04:07:32;21.85;;;6.15;;
43150;SDS011;28755;51.478;5.702;2023-04-25T04:09:58;23.65;;;5.78;;
43150;SDS011;28755;51.478;5.702;2023-04-25T04:12:24;26.15;;;6.20;;
43150;SDS011;28755;51.478;5.702;2023-04-25T04:14:49;28.38;;;6.28;;
43150;SDS011;28755;51.478;5.702;2023-04-25T04:17:15;20.23;;;4.78;;
43150;SDS011;28755;51.478;5.702;2023-04-25T04:19:41;22.27;;;5.35;;
43150;SDS011;28755;51.478;5.702;2023-04-25T04:22:06;21.33;;;5.65;;
43150;SDS011;28755;51.478;5.702;2023-04-25T04:24:32;19.50;;;5.40;;
43150;SDS011;28755;51.478;5.702;2023-04-25T04:26:58;21.30;;;5.85;;
43150;SDS011;28755;51.478;5.702;2023-04-25T04:29:23;17.60;;;5.10;;
43150;SDS011;28755;51.478;5.702;2023-04-25T04:31:49;34.75;;;6.30;;
43150;SDS011;28755;51.478;5.702;2023-04-25T04:34:16;25.50;;;5.88;;
43150;SDS011;28755;51.478;5.702;2023-04-25T04:36:43;24.13;;;6.88;;
43150;SDS011;28755;51.478;5.702;2023-04-25T04:39:11;27.77;;;6.10;;
43150;SDS011;28755;51.478;5.702;2023-04-25T04:41:37;23.27;;;5.78;;
43150;SDS011;28755;51.478;5.702;2023-04-25T04:44:03;27.08;;;6.72;;
43150;SDS011;28755;51.478;5.702;2023-04-25T04:46:28;27.63;;;6.13;;
43150;SDS011;28755;51.478;5.702;2023-04-25T04:48:56;27.90;;;5.75;;
43150;SDS011;28755;51.478;5.702;2023-04-25T04:51:21;19.63;;;5.38;;
43150;SDS011;28755;51.478;5.702;2023-04-25T04:53:47;23.40;;;5.95;;
43150;SDS011;28755;51.478;5.702;2023-04-25T04:56:12;17.77;;;5.65;;
43150;SDS011;28755;51.478;5.702;2023-04-25T04:58:38;20.60;;;5.43;;
43150;SDS011;28755;51.478;5.702;2023-04-25T05:01:03;30.10;;;5.82;;
43150;SDS011;28755;51.478;5.702;2023-04-25T05:03:30;21.02;;;6.28;;
43150;SDS011;28755;51.478;5.702;2023-04-25T05:05:55;22.25;;;5.90;;
43150;SDS011;28755;51.478;5.702;2023-04-25T05:08:21;24.77;;;5.68;;
43150;SDS011;28755;51.478;5.702;2023-04-25T05:10:46;23.90;;;5.40;;
43150;SDS011;28755;51.478;5.702;2023-04-25T05:13:12;20.55;;;5.35;;
43150;SDS011;28755;51.478;5.702;2023-04-25T05:15:37;17.80;;;4.65;;
43150;SDS011;28755;51.478;5.702;2023-04-25T05:18:03;20.73;;;4.80;;
43150;SDS011;28755;51.478;5.702;2023-04-25T05:20:29;20.35;;;5.32;;
43150;SDS011;28755;51.478;5.702;2023-04-25T05:22:55;19.00;;;5.32;;
43150;SDS011;28755;51.478;5.702;2023-04-25T05:25:20;17.13;;;4.28;;
43150;SDS011;28755;51.478;5.702;2023-04-25T05:27:46;27.02;;;5.50;;
43150;SDS011;28755;51.478;5.702;2023-04-25T05:30:11;22.98;;;5.82;;
43150;SDS011;28755;51.478;5.702;2023-04-25T05:32:37;21.10;;;5.07;;
43150;SDS011;28755;51.478;5.702;2023-04-25T05:35:02;18.63;;;5.10;;
43150;SDS011;28755;51.478;5.702;2023-04-25T05:37:28;17.08;;;5.03;;
43150;SDS011;28755;51.478;5.702;2023-04-25T05:39:55;22.63;;;5.32;;
43150;SDS011;28755;51.478;5.702;2023-04-25T05:42:21;12.98;;;4.15;;
43150;SDS011;28755;51.478;5.702;2023-04-25T05:44:47;24.75;;;5.15;;
43150;SDS011;28755;51.478;5.702;2023-04-25T05:47:12;20.95;;;4.35;;
43150;SDS011;28755;51.478;5.702;2023-04-25T05:49:38;18.40;;;4.68;;
43150;SDS011;28755;51.478;5.702;2023-04-25T05:52:03;22.38;;;5.50;;
43150;SDS011;28755;51.478;5.702;2023-04-25T05:54:29;17.60;;;5.13;;
43150;SDS011;28755;51.478;5.702;2023-04-25T05:56:56;19.52;;;5.18;;
43150;SDS011;28755;51.478;5.702;2023-04-25T05:59:22;18.70;;;5.05;;
43150;SDS011;28755;51.478;5.702;2023-04-25T06:01:47;14.02;;;4.53;;
43150;SDS011;28755;51.478;5.702;2023-04-25T06:04:13;19.98;;;4.38;;
43150;SDS011;28755;51.478;5.702;2023-04-25T06:06:38;16.63;;;4.38;;
43150;SDS011;28755;51.478;5.702;2023-04-25T06:09:04;25.33;;;5.72;;
43150;SDS011;28755;51.478;5.702;2023-04-25T06:11:29;21.30;;;4.53;;
43150;SDS011;28755;51.478;5.702;2023-04-25T06:13:55;24.55;;;6.15;;
43150;SDS011;28755;51.478;5.702;2023-04-25T06:16:20;19.65;;;4.63;;
43150;SDS011;28755;51.478;5.702;2023-04-25T06:18:46;17.67;;;4.10;;
43150;SDS011;28755;51.478;5.702;2023-04-25T06:21:11;17.58;;;4.43;;
43150;SDS011;28755;51.478;5.702;2023-04-25T06:23:37;20.80;;;4.60;;
43150;SDS011;28755;51.478;5.702;2023-04-25T06:26:03;17.73;;;4.68;;
43150;SDS011;28755;51.478;5.702;2023-04-25T06:28:28;18.80;;;4.40;;
43150;SDS011;28755;51.478;5.702;2023-04-25T06:30:54;14.77;;;3.33;;
43150;SDS011;28755;51.478;5.702;2023-04-25T06:33:20;18.38;;;3.78;;
43150;SDS011;28755;51.478;5.702;2023-04-25T06:35:46;17.63;;;3.97;;
43150;SDS011;28755;51.478;5.702;2023-04-25T06:38:12;14.73;;;3.50;;
43150;SDS011;28755;51.478;5.702;2023-04-25T06:40:37;16.02;;;3.20;;
43150;SDS011;28755;51.478;5.702;2023-04-25T06:43:03;18.02;;;2.85;;
43150;SDS011;28755;51.478;5.702;2023-04-25T06:45:29;14.75;;;2.90;;
43150;SDS011;28755;51.478;5.702;2023-04-25T06:47:55;18.08;;;4.25;;
43150;SDS011;28755;51.478;5.702;2023-04-25T06:50:20;16.38;;;3.20;;
43150;SDS011;28755;51.478;5.702;2023-04-25T06:52:46;17.35;;;4.22;;
43150;SDS011;28755;51.478;5.702;2023-04-25T06:55:12;17.33;;;3.45;;
43150;SDS011;28755;51.478;5.702;2023-04-25T06:57:37;18.30;;;3.42;;
43150;SDS011;28755;51.478;5.702;2023-04-25T07:00:03;16.27;;;3.50;;
43150;SDS011;28755;51.478;5.702;2023-04-25T07:02:30;15.18;;;3.20;;
43150;SDS011;28755;51.478;5.702;2023-04-25T07:04:56;16.15;;;3.50;;
43150;SDS011;28755;51.478;5.702;2023-04-25T07:07:24;14.95;;;3.70;;
43150;SDS011;28755;51.478;5.702;2023-04-25T07:09:50;17.67;;;3.72;;
43150;SDS011;28755;51.478;5.702;2023-04-25T07:12:16;14.10;;;3.10;;
43150;SDS011;28755;51.478;5.702;2023-04-25T07:14:41;18.42;;;3.50;;
43150;SDS011;28755;51.478;5.702;2023-04-25T07:17:07;13.73;;;2.55;;
43150;SDS011;28755;51.478;5.702;2023-04-25T07:19:32;12.70;;;2.75;;
43150;SDS011;28755;51.478;5.702;2023-04-25T07:21:58;20.58;;;3.08;;
43150;SDS011;28755;51.478;5.702;2023-04-25T07:24:24;16.67;;;3.10;;
43150;SDS011;28755;51.478;5.702;2023-04-25T07:26:49;13.05;;;3.10;;
43150;SDS011;28755;51.478;5.702;2023-04-25T07:29:15;8.82;;;2.55;;
43150;SDS011;28755;51.478;5.702;2023-04-25T07:31:41;7.88;;;2.22;;
43150;SDS011;28755;51.478;5.702;2023-04-25T07:34:06;13.20;;;2.63;;
43150;SDS011;28755;51.478;5.702;2023-04-25T07:36:32;13.40;;;2.90;;
43150;SDS011;28755;51.478;5.702;2023-04-25T07:38:58;13.98;;;2.47;;
43150;SDS011;28755;51.478;5.702;2023-04-25T07:41:23;14.05;;;2.88;;
43150;SDS011;28755;51.478;5.702;2023-04-25T07:43:49;10.45;;;2.40;;
43150;SDS011;28755;51.478;5.702;2023-04-25T07:46:14;11.45;;;2.58;;
43150;SDS011;28755;51.478;5.702;2023-04-25T07:48:40;14.27;;;2.85;;
43150;SDS011;28755;51.478;5.702;2023-04-25T07:51:05;11.65;;;2.60;;
43150;SDS011;28755;51.478;5.702;2023-04-25T07:53:32;13.60;;;2.67;;
43150;SDS011;28755;51.478;5.702;2023-04-25T07:55:59;12.50;;;2.53;;
43150;SDS011;28755;51.478;5.702;2023-04-25T07:58:25;11.80;;;2.17;;
43150;SDS011;28755;51.478;5.702;2023-04-25T08:00:50;9.10;;;1.92;;
43150;SDS011;28755;51.478;5.702;2023-04-25T08:03:16;9.48;;;2.22;;
43150;SDS011;28755;51.478;5.702;2023-04-25T08:05:42;9.32;;;2.10;;
43150;SDS011;28755;51.478;5.702;2023-04-25T08:08:07;10.02;;;2.10;;
43150;SDS011;28755;51.478;5.702;2023-04-25T08:10:33;11.23;;;2.33;;
43150;SDS011;28755;51.478;5.702;2023-04-25T08:12:59;8.18;;;1.88;;
43150;SDS011;28755;51.478;5.702;2023-04-25T08:15:25;10.90;;;2.78;;
43150;SDS011;28755;51.478;5.702;2023-04-25T08:17:51;9.57;;;1.65;;
43150;SDS011;28755;51.478;5.702;2023-04-25T08:20:16;10.50;;;2.22;;
43150;SDS011;28755;51.478;5.702;2023-04-25T08:22:42;11.98;;;2.45;;
43150;SDS011;28755;51.478;5.702;2023-04-25T08:25:08;6.75;;;2.38;;
43150;SDS011;28755;51.478;5.702;2023-04-25T08:27:34;11.10;;;1.85;;
43150;SDS011;28755;51.478;5.702;2023-04-25T08:29:59;7.95;;;2.15;;
43150;SDS011;28755;51.478;5.702;2023-04-25T08:32:26;10.02;;;2.20;;
43150;SDS011;28755;51.478;5.702;2023-04-25T08:34:51;8.25;;;2.20;;
43150;SDS011;28755;51.478;5.702;2023-04-25T08:37:19;11.30;;;2.03;;
43150;SDS011;28755;51.478;5.702;2023-04-25T08:39:45;8.35;;;1.63;;
43150;SDS011;28755;51.478;5.702;2023-04-25T08:42:13;8.82;;;2.03;;
43150;SDS011;28755;51.478;5.702;2023-04-25T08:44:40;12.40;;;1.90;;
43150;SDS011;28755;51.478;5.702;2023-04-25T08:47:06;10.23;;;2.08;;
43150;SDS011;28755;51.478;5.702;2023-04-25T08:49:32;8.75;;;2.20;;
43150;SDS011;28755;51.478;5.702;2023-04-25T08:52:02;13.23;;;2.63;;
43150;SDS011;28755;51.478;5.702;2023-04-25T08:54:30;7.90;;;1.92;;
43150;SDS011;28755;51.478;5.702;2023-04-25T08:56:57;10.27;;;2.38;;
43150;SDS011;28755;51.478;5.702;2023-04-25T08:59:27;8.88;;;2.05;;
43150;SDS011;28755;51.478;5.702;2023-04-25T09:01:53;9.98;;;1.88;;
43150;SDS011;28755;51.478;5.702;2023-04-25T09:04:19;12.18;;;2.88;;
43150;SDS011;28755;51.478;5.702;2023-04-25T09:06:46;10.88;;;2.00;;
43150;SDS011;28755;51.478;5.702;2023-04-25T09:09:12;11.43;;;2.10;;
43150;SDS011;28755;51.478;5.702;2023-04-25T09:11:38;11.43;;;2.22;;
43150;SDS011;28755;51.478;5.702;2023-04-25T09:19:36;11.15;;;2.42;;
43150;SDS011;28755;51.478;5.702;2023-04-25T09:22:05;12.82;;;2.45;;
43150;SDS011;28755;51.478;5.702;2023-04-25T09:24:38;20.50;;;2.42;;
43150;SDS011;28755;51.478;5.702;2023-04-25T09:27:06;9.00;;;2.00;;
43150;SDS011;28755;51.478;5.702;2023-04-25T09:29:34;8.27;;;2.20;;
43150;SDS011;28755;51.478;5.702;2023-04-25T09:32:18;7.55;;;1.80;;
43150;SDS011;28755;51.478;5.702;2023-04-25T09:34:46;9.32;;;1.85;;
43150;SDS011;28755;51.478;5.702;2023-04-25T09:37:16;9.07;;;2.08;;
43150;SDS011;28755;51.478;5.702;2023-04-25T09:39:50;7.22;;;2.05;;
43150;SDS011;28755;51.478;5.702;2023-04-25T09:42:23;9.90;;;2.00;;
43150;SDS011;28755;51.478;5.702;2023-04-25T09:44:51;9.88;;;1.88;;
43150;SDS011;28755;51.478;5.702;2023-04-25T09:47:18;6.07;;;1.70;;
43150;SDS011;28755;51.478;5.702;2023-04-25T09:49:46;7.60;;;2.03;;
43150;SDS011;28755;51.478;5.702;2023-04-25T09:52:16;18.25;;;2.58;;
43150;SDS011;28755;51.478;5.702;2023-04-25T09:54:43;8.48;;;1.77;;
43150;SDS011;28755;51.478;5.702;2023-04-25T09:57:14;10.30;;;1.90;;
43150;SDS011;28755;51.478;5.702;2023-04-25T09:59:45;10.18;;;2.33;;
43150;SDS011;28755;51.478;5.702;2023-04-25T10:02:13;5.90;;;1.67;;
43150;SDS011;28755;51.478;5.702;2023-04-25T10:04:40;5.15;;;1.10;;
43150;SDS011;28755;51.478;5.702;2023-04-25T10:07:07;7.55;;;1.10;;
43150;SDS011;28755;51.478;5.702;2023-04-25T10:09:35;4.93;;;1.00;;
43150;SDS011;28755;51.478;5.702;2023-04-25T10:12:03;3.30;;;0.80;;
43150;SDS011;28755;51.478;5.702;2023-04-25T10:14:30;1.95;;;0.75;;
43150;SDS011;28755;51.478;5.702;2023-04-25T10:16:57;2.28;;;0.98;;
43150;SDS011;28755;51.478;5.702;2023-04-25T10:19:24;1.75;;;0.80;;
43150;SDS011;28755;51.478;5.702;2023-04-25T10:21:51;13.35;;;1.80;;
43150;SDS011;28755;51.478;5.702;2023-04-25T10:24:20;3.92;;;1.30;;
43150;SDS011;28755;51.478;5.702;2023-04-25T10:26:47;3.42;;;1.20;;
43150;SDS011;28755;51.478;5.702;2023-04-25T10:29:15;5.03;;;1.23;;
43150;SDS011;28755;51.478;5.702;2023-04-25T10:31:47;4.80;;;1.00;;
43150;SDS011;28755;51.478;5.702;2023-04-25T10:34:13;3.90;;;0.90;;
43150;SDS011;28755;51.478;5.702;2023-04-25T10:36:38;2.50;;;0.82;;
43150;SDS011;28755;51.478;5.702;2023-04-25T10:39:05;3.85;;;0.95;;
43150;SDS011;28755;51.478;5.702;2023-04-25T10:41:32;7.35;;;1.08;;
43150;SDS011;28755;51.478;5.702;2023-04-25T10:44:12;3.05;;;1.00;;
43150;SDS011;28755;51.478;5.702;2023-04-25T10:46:39;6.22;;;0.98;;
43150;SDS011;28755;51.478;5.702;2023-04-25T10:49:05;4.05;;;0.90;;
43150;SDS011;28755;51.478;5.702;2023-04-25T10:51:34;3.95;;;1.27;;
43150;SDS011;28755;51.478;5.702;2023-04-25T10:54:02;5.95;;;1.38;;
43150;SDS011;28755;51.478;5.702;2023-04-25T10:56:30;4.68;;;1.27;;
43150;SDS011;28755;51.478;5.702;2023-04-25T10:59:13;6.57;;;1.42;;
43150;SDS011;28755;51.478;5.702;2023-04-25T11:01:41;5.93;;;1.30;;
43150;SDS011;28755;51.478;5.702;2023-04-25T11:06:51;4.45;;;1.33;;
43150;SDS011;28755;51.478;5.702;2023-04-25T11:09:39;7.13;;;1.60;;
43150;SDS011;28755;51.478;5.702;2023-04-25T11:12:07;4.57;;;1.40;;
43150;SDS011;28755;51.478;5.702;2023-04-25T11:14:34;6.82;;;1.20;;
43150;SDS011;28755;51.478;5.702;2023-04-25T11:17:00;4.55;;;1.23;;
43150;SDS011;28755;51.478;5.702;2023-04-25T11:19:27;5.18;;;1.48;;
43150;SDS011;28755;51.478;5.702;2023-04-25T11:22:00;6.25;;;1.65;;
43150;SDS011;28755;51.478;5.702;2023-04-25T11:24:31;3.28;;;1.13;;
43150;SDS011;28755;51.478;5.702;2023-04-25T11:26:58;3.78;;;1.38;;
43150;SDS011;28755;51.478;5.702;2023-04-25T11:29:27;8.90;;;1.80;;
43150;SDS011;28755;51.478;5.702;2023-04-25T11:31:57;6.78;;;1.90;;
43150;SDS011;28755;51.478;5.702;2023-04-25T11:34:23;8.13;;;2.00;;
43150;SDS011;28755;51.478;5.702;2023-04-25T11:36:50;7.78;;;1.65;;
43150;SDS011;28755;51.478;5.702;2023-04-25T11:39:17;9.50;;;2.10;;
43150;SDS011;28755;51.478;5.702;2023-04-25T11:41:43;7.28;;;1.70;;
43150;SDS011;28755;51.478;5.702;2023-04-25T11:44:09;7.45;;;1.88;;
43150;SDS011;28755;51.478;5.702;2023-04-25T11:46:35;6.72;;;1.70;;
43150;SDS011;28755;51.478;5.702;2023-04-25T11:49:01;20.30;;;1.73;;
43150;SDS011;28755;51.478;5.702;2023-04-25T11:51:29;5.07;;;1.33;;
43150;SDS011;28755;51.478;5.702;2023-04-25T11:53:56;7.80;;;1.50;;
43150;SDS011;28755;51.478;5.702;2023-04-25T11:56:22;6.75;;;1.40;;
43150;SDS011;28755;51.478;5.702;2023-04-25T11:58:54;4.63;;;1.50;;
43150;SDS011;28755;51.478;5.702;2023-04-25T12:01:29;4.68;;;1.40;;
43150;SDS011;28755;51.478;5.702;2023-04-25T12:03:58;7.22;;;1.80;;
43150;SDS011;28755;51.478;5.702;2023-04-25T12:06:38;8.00;;;2.13;;
43150;SDS011;28755;51.478;5.702;2023-04-25T12:09:07;11.88;;;2.10;;
43150;SDS011;28755;51.478;5.702;2023-04-25T12:14:20;8.20;;;1.45;;
43150;SDS011;28755;51.478;5.702;2023-04-25T12:16:52;6.22;;;1.83;;
43150;SDS011;28755;51.478;5.702;2023-04-25T12:19:19;10.30;;;1.85;;
43150;SDS011;28755;51.478;5.702;2023-04-25T12:21:45;5.18;;;1.30;;
43150;SDS011;28755;51.478;5.702;2023-04-25T12:24:15;9.35;;;1.40;;
43150;SDS011;28755;51.478;5.702;2023-04-25T12:27:16;7.82;;;1.23;;
43150;SDS011;28755;51.478;5.702;2023-04-25T12:29:34;7.00;;;1.63;;
43150;SDS011;28755;51.478;5.702;2023-04-25T12:32:00;4.60;;;1.38;;
43150;SDS011;28755;51.478;5.702;2023-04-25T12:34:29;4.95;;;1.00;;
43150;SDS011;28755;51.478;5.702;2023-04-25T12:36:56;3.38;;;1.00;;
43150;SDS011;28755;51.478;5.702;2023-04-25T12:39:23;3.75;;;1.00;;
43150;SDS011;28755;51.478;5.702;2023-04-25T12:41:50;4.97;;;1.05;;
43150;SDS011;28755;51.478;5.702;2023-04-25T12:44:19;4.07;;;0.88;;
43150;SDS011;28755;51.478;5.702;2023-04-25T12:46:45;3.58;;;1.10;;
43150;SDS011;28755;51.478;5.702;2023-04-25T12:49:10;3.72;;;1.05;;
43150;SDS011;28755;51.478;5.702;2023-04-25T12:51:36;4.95;;;0.90;;
43150;SDS011;28755;51.478;5.702;2023-04-25T12:54:03;3.65;;;1.20;;
43150;SDS011;28755;51.478;5.702;2023-04-25T12:56:30;5.97;;;1.10;;
43150;SDS011;28755;51.478;5.702;2023-04-25T12:58:56;3.63;;;0.90;;
43150;SDS011;28755;51.478;5.702;2023-04-25T13:01:22;5.70;;;0.90;;
43150;SDS011;28755;51.478;5.702;2023-04-25T13:03:48;2.38;;;0.80;;
43150;SDS011;28755;51.478;5.702;2023-04-25T13:06:14;2.83;;;0.80;;
43150;SDS011;28755;51.478;5.702;2023-04-25T13:08:40;5.20;;;1.23;;
43150;SDS011;28755;51.478;5.702;2023-04-25T13:11:07;2.10;;;0.77;;
43150;SDS011;28755;51.478;5.702;2023-04-25T13:13:32;3.15;;;0.90;;
43150;SDS011;28755;51.478;5.702;2023-04-25T13:15:59;1.67;;;0.70;;
43150;SDS011;28755;51.478;5.702;2023-04-25T13:18:26;4.45;;;0.77;;
43150;SDS011;28755;51.478;5.702;2023-04-25T13:20:53;4.30;;;0.85;;
43150;SDS011;28755;51.478;5.702;2023-04-25T13:23:18;4.05;;;0.68;;
43150;SDS011;28755;51.478;5.702;2023-04-25T13:25:45;4.10;;;1.40;;
43150;SDS011;28755;51.478;5.702;2023-04-25T13:28:11;6.78;;;1.30;;
43150;SDS011;28755;51.478;5.702;2023-04-25T13:30:37;5.45;;;1.40;;
43150;SDS011;28755;51.478;5.702;2023-04-25T13:33:02;8.95;;;1.42;;
43150;SDS011;28755;51.478;5.702;2023-04-25T13:35:29;7.00;;;1.13;;
43150;SDS011;28755;51.478;5.702;2023-04-25T13:37:55;8.75;;;1.73;;
43150;SDS011;28755;51.478;5.702;2023-04-25T13:40:21;4.80;;;1.20;;
43150;SDS011;28755;51.478;5.702;2023-04-25T13:42:54;6.07;;;1.48;;
43150;SDS011;28755;51.478;5.702;2023-04-25T13:45:20;3.42;;;1.17;;
43150;SDS011;28755;51.478;5.702;2023-04-25T13:47:46;4.57;;;1.10;;
43150;SDS011;28755;51.478;5.702;2023-04-25T13:50:12;4.97;;;1.10;;
43150;SDS011;28755;51.478;5.702;2023-04-25T13:52:38;5.70;;;1.30;;
43150;SDS011;28755;51.478;5.702;2023-04-25T13:55:04;4.47;;;1.23;;
43150;SDS011;28755;51.478;5.702;2023-04-25T13:57:31;5.75;;;1.63;;
43150;SDS011;28755;51.478;5.702;2023-04-25T13:59:57;9.07;;;1.45;;
43150;SDS011;28755;51.478;5.702;2023-04-25T14:02:24;4.20;;;1.00;;
43150;SDS011;28755;51.478;5.702;2023-04-25T14:04:50;3.70;;;1.08;;
43150;SDS011;28755;51.478;5.702;2023-04-25T14:07:15;5.80;;;1.08;;
43150;SDS011;28755;51.478;5.702;2023-04-25T14:09:41;5.80;;;1.50;;
43150;SDS011;28755;51.478;5.702;2023-04-25T14:12:07;6.25;;;1.65;;
43150;SDS011;28755;51.478;5.702;2023-04-25T14:14:32;7.30;;;1.70;;
43150;SDS011;28755;51.478;5.702;2023-04-25T14:16:58;5.13;;;1.58;;
43150;SDS011;28755;51.478;5.702;2023-04-25T14:19:24;5.53;;;1.42;;
43150;SDS011;28755;51.478;5.702;2023-04-25T14:21:49;5.97;;;1.75;;
43150;SDS011;28755;51.478;5.702;2023-04-25T14:24:15;5.28;;;1.40;;
43150;SDS011;28755;51.478;5.702;2023-04-25T14:26:41;5.65;;;1.45;;
43150;SDS011;28755;51.478;5.702;2023-04-25T14:29:07;4.57;;;1.48;;
43150;SDS011;28755;51.478;5.702;2023-04-25T14:31:34;5.43;;;1.55;;
43150;SDS011;28755;51.478;5.702;2023-04-25T14:33:59;8.20;;;1.77;;
43150;SDS011;28755;51.478;5.702;2023-04-25T14:36:26;4.97;;;1.60;;
43150;SDS011;28755;51.478;5.702;2023-04-25T14:38:52;7.82;;;1.60;;
43150;SDS011;28755;51.478;5.702;2023-04-25T14:41:18;6.50;;;1.42;;
43150;SDS011;28755;51.478;5.702;2023-04-25T14:43:44;7.45;;;1.40;;
43150;SDS011;28755;51.478;5.702;2023-04-25T14:46:10;11.02;;;1.73;;
43150;SDS011;28755;51.478;5.702;2023-04-25T14:48:36;5.68;;;1.35;;